createdAt,value
2019-04-29T00:01:18.792Z,6.80
2019-04-29T00:03:45.651Z,4.47
2019-04-29T00:06:12.644Z,6.87
2019-04-29T00:08:39.647Z,6.43
2019-04-29T00:11:06.451Z,5.73
2019-04-29T00:13:33.407Z,5.43
2019-04-29T00:16:07.456Z,3.13
2019-04-29T00:18:43.949Z,3.33
2019-04-29T00:21:11.051Z,3.70
2019-04-29T00:23:37.892Z,5.17
2019-04-29T00:26:04.843Z,5.73
2019-04-29T00:28:31.637Z,3.80
2019-04-29T00:30:59.107Z,3.30
2019-04-29T00:33:26.091Z,5.23
2019-04-29T00:35:52.798Z,7.40
2019-04-29T00:38:46.602Z,5.83
2019-04-29T00:41:28.701Z,3.60
2019-04-29T00:43:58.567Z,2.83
2019-04-29T00:46:25.507Z,4.57
2019-04-29T00:48:52.427Z,3.70
2019-04-29T00:51:19.399Z,3.40
2019-04-29T00:53:47.848Z,4.13
2019-04-29T00:56:15.188Z,4.37
2019-04-29T00:58:41.931Z,2.57
2019-04-29T01:01:12.578Z,3.33
2019-04-29T01:03:41.149Z,3.43
2019-04-29T01:06:08.679Z,6.07
2019-04-29T01:08:35.679Z,3.33
2019-04-29T01:11:02.765Z,3.60
2019-04-29T01:13:29.512Z,4.03
2019-04-29T01:15:56.453Z,3.03
2019-04-29T01:18:23.311Z,2.80
2019-04-29T01:20:50.196Z,2.60
2019-04-29T01:23:17.151Z,4.30
2019-04-29T01:25:46.131Z,4.43
2019-04-29T01:28:22.011Z,5.20
2019-04-29T01:31:16.257Z,5.53
2019-04-29T01:33:43.386Z,3.97
2019-04-29T01:36:31.023Z,3.53
2019-04-29T01:39:00.423Z,3.07
2019-04-29T01:41:29.285Z,6.37
2019-04-29T01:44:03.656Z,4.03
2019-04-29T01:46:30.691Z,2.97
2019-04-29T01:48:57.540Z,16.17
2019-04-29T01:51:24.474Z,15.27
2019-04-29T01:53:51.444Z,10.53
2019-04-29T01:56:18.530Z,6.83
2019-04-29T01:58:45.487Z,6.97
2019-04-29T02:01:12.203Z,3.27
2019-04-29T02:03:39.143Z,4.93
2019-04-29T02:06:06.115Z,7.33
2019-04-29T02:08:32.851Z,4.30
2019-04-29T02:10:59.855Z,3.13
2019-04-29T02:13:26.595Z,3.27
2019-04-29T02:15:53.387Z,9.00
2019-04-29T02:18:20.111Z,5.37
2019-04-29T02:20:46.836Z,2.70
2019-04-29T02:23:39.067Z,4.33
2019-04-29T02:26:06.699Z,4.60
2019-04-29T02:28:33.428Z,6.53
2019-04-29T02:31:19.986Z,3.50
2019-04-29T02:33:46.830Z,3.90
2019-04-29T02:36:13.619Z,4.83
2019-04-29T02:38:46.464Z,4.37
2019-04-29T02:41:20.713Z,2.83
2019-04-29T02:43:49.409Z,4.00
2019-04-29T02:46:16.279Z,4.97
2019-04-29T02:48:43.008Z,4.00
2019-04-29T02:51:11.652Z,3.00
2019-04-29T02:53:38.648Z,4.00
2019-04-29T02:56:05.502Z,4.00
2019-04-29T02:58:41.192Z,5.07
2019-04-29T03:01:24.833Z,3.20
2019-04-29T03:04:01.787Z,7.03
2019-04-29T03:06:28.729Z,5.90
2019-04-29T03:08:55.728Z,3.70
2019-04-29T03:11:22.459Z,5.23
2019-04-29T03:13:49.603Z,4.60
2019-04-29T03:16:18.184Z,4.57
2019-04-29T03:18:49.512Z,3.77
2019-04-29T03:21:36.127Z,5.97
2019-04-29T03:24:03.240Z,3.87
2019-04-29T03:26:30.115Z,3.47
2019-04-29T03:28:56.912Z,3.60
2019-04-29T03:31:23.767Z,5.30
2019-04-29T03:33:50.558Z,3.17
2019-04-29T03:36:20.231Z,6.10
2019-04-29T03:38:47.060Z,5.30
2019-04-29T03:41:13.879Z,3.87
2019-04-29T03:43:40.892Z,3.77
2019-04-29T03:46:07.890Z,5.43
2019-04-29T03:48:34.741Z,7.43
2019-04-29T03:51:01.753Z,10.70
2019-04-29T03:53:28.872Z,10.43
2019-04-29T03:55:55.955Z,8.67
2019-04-29T03:58:23.475Z,6.03
2019-04-29T04:00:53.361Z,6.33
2019-04-29T04:03:36.120Z,4.57
2019-04-29T04:06:17.663Z,6.20
2019-04-29T04:09:04.753Z,6.80
2019-04-29T04:11:19.347Z,3.10
2019-04-29T04:13:46.082Z,2.80
2019-04-29T04:16:22.655Z,5.13
2019-04-29T04:18:51.444Z,3.67
2019-04-29T04:21:18.434Z,3.57
2019-04-29T04:23:45.299Z,5.37
2019-04-29T04:26:12.155Z,5.53
2019-04-29T04:28:39.031Z,6.50
2019-04-29T04:31:09.722Z,5.73
2019-04-29T04:33:36.867Z,7.23
2019-04-29T04:36:03.946Z,5.83
2019-04-29T04:38:30.784Z,6.43
2019-04-29T04:41:01.966Z,5.77
2019-04-29T04:43:28.701Z,8.50
2019-04-29T04:45:55.541Z,8.00
2019-04-29T04:48:22.377Z,7.80
2019-04-29T04:50:49.381Z,6.43
2019-04-29T04:53:16.373Z,4.97
2019-04-29T04:55:45.112Z,5.07
2019-04-29T04:58:12.099Z,7.07
2019-04-29T05:00:38.983Z,5.60
2019-04-29T05:03:05.891Z,6.30
2019-04-29T05:05:32.868Z,5.20
2019-04-29T05:07:59.743Z,5.40
2019-04-29T05:10:26.483Z,6.13
2019-04-29T05:12:53.243Z,7.10
2019-04-29T05:15:20.207Z,6.97
2019-04-29T05:17:46.939Z,6.10
2019-04-29T05:20:14.002Z,9.47
2019-04-29T05:22:44.176Z,7.10
2019-04-29T05:25:11.241Z,5.07
2019-04-29T05:27:38.092Z,4.23
2019-04-29T05:30:05.651Z,6.83
2019-04-29T05:32:32.515Z,7.07
2019-04-29T05:35:01.871Z,6.40
2019-04-29T05:37:37.215Z,5.50
2019-04-29T05:40:04.324Z,6.00
2019-04-29T05:42:31.340Z,5.30
2019-04-29T05:45:07.964Z,5.47
2019-04-29T05:48:00.212Z,6.57
2019-04-29T05:50:52.041Z,8.37
2019-04-29T05:53:23.109Z,8.47
2019-04-29T05:55:52.500Z,8.50
2019-04-29T05:58:18.936Z,6.13
2019-04-29T06:01:01.423Z,4.67
2019-04-29T06:03:28.151Z,5.70
2019-04-29T06:05:55.001Z,5.93
2019-04-29T06:08:21.739Z,6.63
2019-04-29T06:10:48.520Z,6.60
2019-04-29T06:13:15.263Z,9.23
2019-04-29T06:15:42.135Z,6.37
2019-04-29T06:18:08.880Z,7.13
2019-04-29T06:20:35.723Z,7.93
2019-04-29T06:23:02.874Z,7.57
2019-04-29T06:25:29.719Z,5.63
2019-04-29T06:27:56.497Z,6.67
2019-04-29T06:30:23.438Z,5.83
2019-04-29T06:32:50.271Z,10.73
2019-04-29T06:35:16.993Z,8.93
2019-04-29T06:37:43.851Z,6.63
2019-04-29T06:40:10.915Z,10.57
2019-04-29T06:42:37.757Z,8.87
2019-04-29T06:45:04.973Z,6.50
2019-04-29T06:47:31.815Z,8.10
2019-04-29T06:49:58.853Z,8.33
2019-04-29T06:52:25.659Z,7.70
2019-04-29T06:54:52.635Z,6.30
2019-04-29T06:57:19.371Z,5.73
2019-04-29T06:59:47.576Z,6.03
2019-04-29T07:02:16.128Z,5.37
2019-04-29T07:04:43.045Z,5.47
2019-04-29T07:07:09.767Z,6.67
2019-04-29T07:09:36.523Z,6.13
2019-04-29T07:12:03.501Z,6.60
2019-04-29T07:14:33.338Z,4.87
2019-04-29T07:17:00.890Z,5.33
2019-04-29T07:19:28.330Z,6.30
2019-04-29T07:21:56.619Z,10.30
2019-04-29T07:24:23.595Z,6.33
2019-04-29T07:26:50.460Z,8.70
2019-04-29T07:29:17.636Z,6.90
2019-04-29T07:31:44.735Z,7.07
2019-04-29T07:34:11.487Z,7.17
2019-04-29T07:36:38.367Z,8.83
2019-04-29T07:39:05.705Z,9.10
2019-04-29T07:41:32.590Z,7.83
2019-04-29T07:43:59.541Z,5.87
2019-04-29T07:46:56.257Z,8.20
2019-04-29T07:49:17.368Z,8.50
2019-04-29T07:51:42.439Z,8.27
2019-04-29T07:54:11.072Z,7.60
2019-04-29T07:56:42.285Z,6.00
2019-04-29T07:59:06.911Z,7.23
2019-04-29T08:01:33.870Z,7.83
2019-04-29T08:04:00.627Z,10.73
2019-04-29T08:06:27.555Z,7.50
2019-04-29T08:08:57.364Z,6.58
2019-04-29T08:11:23.288Z,7.62
2019-04-29T08:13:51.063Z,8.13
2019-04-29T08:16:18.664Z,8.18
2019-04-29T08:18:49.386Z,7.47
2019-04-29T08:21:15.960Z,6.47
2019-04-29T08:23:43.287Z,6.20
2019-04-29T08:26:10.165Z,5.62
2019-04-29T08:28:37.050Z,5.22
2019-04-29T08:31:03.911Z,6.80
2019-04-29T08:33:30.859Z,7.62
2019-04-29T08:35:57.594Z,7.45
2019-04-29T08:38:24.483Z,5.03
2019-04-29T08:40:51.737Z,7.22
2019-04-29T08:43:38.536Z,7.42
2019-04-29T08:46:08.471Z,8.23
2019-04-29T08:48:35.447Z,7.37
2019-04-29T08:51:02.445Z,6.10
2019-04-29T08:53:29.203Z,7.12
2019-04-29T08:55:56.092Z,7.72
2019-04-29T08:58:23.016Z,8.50
2019-04-29T09:00:51.443Z,5.87
2019-04-29T09:03:22.944Z,7.30
2019-04-29T09:06:03.946Z,7.03
2019-04-29T09:08:16.306Z,6.78
2019-04-29T09:10:43.296Z,6.50
2019-04-29T09:13:10.184Z,6.85
2019-04-29T09:15:37.063Z,7.30
2019-04-29T09:18:04.037Z,7.90
2019-04-29T09:20:31.035Z,8.93
2019-04-29T09:23:02.272Z,6.83
2019-04-29T09:25:39.619Z,5.72
2019-04-29T09:28:09.045Z,5.10
2019-04-29T09:30:38.631Z,5.60
2019-04-29T09:33:08.615Z,9.98
2019-04-29T09:35:38.326Z,6.07
2019-04-29T09:38:02.353Z,5.80
2019-04-29T09:40:31.320Z,5.83
2019-04-29T09:43:21.558Z,7.10
2019-04-29T09:46:08.246Z,6.80
2019-04-29T09:48:35.132Z,5.73
2019-04-29T09:51:16.331Z,6.47
2019-04-29T09:53:32.122Z,6.87
2019-04-29T09:55:59.015Z,6.00
2019-04-29T09:58:25.787Z,6.83
2019-04-29T10:01:21.468Z,13.63
2019-04-29T10:04:13.999Z,6.87
2019-04-29T10:06:41.259Z,7.67
2019-04-29T10:09:09.335Z,3.67
2019-04-29T10:11:36.256Z,6.23
2019-04-29T10:14:03.402Z,7.43
2019-04-29T10:16:44.336Z,9.40
2019-04-29T10:19:24.217Z,7.30
2019-04-29T10:21:51.170Z,5.43
2019-04-29T10:24:18.333Z,6.37
2019-04-29T10:26:45.316Z,8.87
2019-04-29T10:29:18.446Z,6.47
2019-04-29T10:31:44.382Z,8.30
2019-04-29T10:34:11.813Z,6.17
2019-04-29T10:36:38.664Z,6.67
2019-04-29T10:39:30.571Z,6.83
2019-04-29T10:41:58.551Z,5.93
2019-04-29T10:44:33.000Z,5.27
2019-04-29T10:47:40.471Z,4.17
2019-04-29T10:50:15.607Z,7.20
2019-04-29T10:52:43.565Z,5.07
2019-04-29T10:55:11.544Z,7.53
2019-04-29T10:57:39.115Z,6.20
2019-04-29T11:00:24.688Z,4.57
2019-04-29T11:02:51.641Z,5.70
2019-04-29T11:05:24.491Z,5.40
2019-04-29T11:07:58.082Z,5.73
2019-04-29T11:10:26.614Z,4.40
2019-04-29T11:12:53.796Z,7.37
2019-04-29T11:15:23.369Z,9.07
2019-04-29T11:17:58.728Z,8.73
2019-04-29T11:20:21.628Z,5.10
2019-04-29T11:22:55.539Z,3.93
2019-04-29T11:25:51.067Z,5.97
2019-04-29T11:28:16.213Z,4.43
2019-04-29T11:30:42.852Z,5.17
2019-04-29T11:33:18.974Z,6.63
2019-04-29T11:36:03.861Z,3.92
2019-04-29T11:38:32.939Z,2.15
2019-04-29T11:41:00.375Z,3.80
2019-04-29T11:43:27.651Z,6.22
2019-04-29T11:45:54.819Z,3.87
2019-04-29T11:48:21.888Z,5.58
2019-04-29T11:50:56.647Z,5.80
2019-04-29T11:53:23.658Z,6.62
2019-04-29T11:55:52.556Z,5.22
2019-04-29T11:58:27.213Z,6.87
2019-04-29T12:01:03.892Z,4.00
2019-04-29T12:03:37.442Z,6.17
2019-04-29T12:06:05.721Z,5.25
2019-04-29T12:08:32.547Z,3.10
2019-04-29T12:11:07.075Z,6.12
2019-04-29T12:13:38.447Z,7.70
2019-04-29T12:16:10.395Z,4.47
2019-04-29T12:18:51.951Z,4.33
2019-04-29T12:21:29.439Z,4.87
2019-04-29T12:23:58.519Z,9.93
2019-04-29T12:26:26.153Z,5.70
2019-04-29T12:28:53.207Z,6.40
2019-04-29T12:31:29.348Z,3.93
2019-04-29T12:34:03.731Z,4.93
2019-04-29T12:36:30.729Z,3.80
2019-04-29T12:39:42.860Z,2.90
2019-04-29T12:42:25.076Z,6.00
2019-04-29T12:44:55.318Z,3.73
2019-04-29T12:47:29.071Z,4.97
2019-04-29T12:49:55.974Z,4.00
2019-04-29T12:52:22.970Z,7.57
2019-04-29T12:54:49.922Z,4.83
2019-04-29T12:57:18.776Z,5.33
2019-04-29T12:59:45.559Z,7.07
2019-04-29T13:02:30.390Z,4.07
2019-04-29T13:05:02.883Z,5.40
2019-04-29T13:07:52.083Z,6.97
2019-04-29T13:10:24.619Z,6.33
2019-04-29T13:12:51.363Z,5.03
2019-04-29T13:15:27.979Z,2.97
2019-04-29T13:18:03.639Z,4.67
2019-04-29T13:20:29.471Z,2.53
2019-04-29T13:23:01.152Z,5.30
2019-04-29T13:25:26.818Z,5.50
2019-04-29T13:27:56.103Z,5.37
2019-04-29T13:30:22.963Z,7.03
2019-04-29T13:32:49.823Z,3.67
2019-04-29T13:35:16.831Z,4.73
2019-04-29T13:37:43.676Z,4.67
2019-04-29T13:40:11.292Z,4.00
2019-04-29T13:42:38.163Z,7.30
2019-04-29T13:45:12.870Z,4.33
2019-04-29T13:48:06.805Z,4.13
2019-04-29T13:50:41.912Z,4.47
2019-04-29T13:53:11.703Z,3.40
2019-04-29T13:56:10.336Z,5.53
2019-04-29T13:58:06.537Z,3.93
2019-04-29T14:00:46.647Z,4.73
2019-04-29T14:03:18.132Z,4.47
2019-04-29T14:05:44.865Z,5.77
2019-04-29T14:08:14.691Z,6.83
2019-04-29T14:10:41.548Z,5.27
2019-04-29T14:13:15.151Z,3.93
2019-04-29T14:15:40.377Z,6.03
2019-04-29T14:18:06.785Z,5.00
2019-04-29T14:20:35.043Z,3.17
2019-04-29T14:23:01.781Z,4.07
2019-04-29T14:25:28.668Z,7.90
2019-04-29T14:27:55.441Z,3.00
2019-04-29T14:30:37.348Z,5.13
2019-04-29T14:32:55.552Z,3.93
2019-04-29T14:35:37.039Z,4.70
2019-04-29T14:38:05.139Z,5.60
2019-04-29T14:40:32.897Z,7.80
2019-04-29T14:43:28.744Z,2.07
2019-04-29T14:46:16.290Z,4.73
2019-04-29T14:48:46.067Z,7.30
2019-04-29T14:51:12.907Z,5.40
2019-04-29T14:53:39.805Z,5.13
2019-04-29T14:56:06.644Z,3.43
2019-04-29T14:58:33.555Z,6.00
2019-04-29T15:01:32.490Z,4.17
2019-04-29T15:04:01.571Z,5.67
2019-04-29T15:06:29.113Z,4.27
2019-04-29T15:08:56.333Z,7.80
2019-04-29T15:11:32.000Z,7.30
2019-04-29T15:14:01.617Z,9.20
2019-04-29T15:16:35.004Z,5.10
2019-04-29T15:19:21.800Z,4.50
2019-04-29T15:21:55.927Z,3.00
2019-04-29T15:24:27.429Z,4.27
2019-04-29T15:26:52.367Z,5.27
2019-04-29T15:29:19.242Z,3.33
2019-04-29T15:31:47.074Z,6.80
2019-04-29T15:34:14.858Z,7.07
2019-04-29T15:36:42.047Z,4.27
2019-04-29T15:39:11.526Z,2.93
2019-04-29T15:41:37.959Z,4.57
2019-04-29T15:44:08.014Z,6.60
2019-04-29T15:46:45.466Z,6.00
2019-04-29T15:49:02.980Z,11.33
2019-04-29T15:51:29.707Z,4.23
2019-04-29T15:53:56.727Z,6.87
2019-04-29T15:56:28.759Z,8.97
2019-04-29T15:58:52.411Z,13.10
2019-04-29T16:01:27.279Z,3.80
2019-04-29T16:03:49.980Z,5.13
2019-04-29T16:06:33.970Z,5.90
2019-04-29T16:09:23.603Z,4.20
2019-04-29T16:11:56.534Z,4.50
2019-04-29T16:14:24.300Z,6.33
2019-04-29T16:16:51.495Z,6.80
2019-04-29T16:19:18.882Z,4.80
2019-04-29T16:21:45.619Z,6.00
2019-04-29T16:24:25.698Z,8.57
2019-04-29T16:26:41.639Z,7.27
2019-04-29T16:29:13.229Z,4.77
2019-04-29T16:31:37.500Z,7.37
2019-04-29T16:34:07.147Z,5.27
2019-04-29T16:36:34.511Z,7.47
2019-04-29T16:39:01.679Z,6.07
2019-04-29T16:41:51.132Z,5.70
2019-04-29T16:44:34.597Z,7.07
2019-04-29T16:46:47.472Z,7.80
2019-04-29T16:49:14.739Z,8.30
2019-04-29T16:51:41.702Z,6.23
2019-04-29T16:54:12.697Z,7.20
2019-04-29T16:56:37.515Z,7.30
2019-04-29T16:59:09.128Z,6.00
2019-04-29T17:01:33.558Z,9.17
2019-04-29T17:04:05.202Z,5.13
2019-04-29T17:06:29.213Z,4.57
2019-04-29T17:09:22.605Z,5.90
2019-04-29T17:11:50.448Z,4.13
2019-04-29T17:14:13.878Z,4.80
2019-04-29T17:16:40.715Z,5.57
2019-04-29T17:19:07.719Z,8.07
2019-04-29T17:21:34.618Z,6.37
2019-04-29T17:24:01.543Z,5.77
2019-04-29T17:26:37.027Z,6.60
2019-04-29T17:29:38.671Z,4.87
2019-04-29T17:32:10.681Z,4.67
2019-04-29T17:34:58.428Z,8.23
2019-04-29T17:37:07.536Z,7.07
2019-04-29T17:39:34.547Z,9.23
2019-04-29T17:42:01.703Z,6.43
2019-04-29T17:44:43.532Z,7.77
2019-04-29T17:47:37.861Z,7.80
2019-04-29T17:50:29.451Z,5.83
2019-04-29T17:52:46.824Z,7.83
2019-04-29T17:55:19.743Z,5.83
2019-04-29T17:57:55.070Z,5.57
2019-04-29T18:00:44.214Z,6.17
2019-04-29T18:03:41.261Z,6.63
2019-04-29T18:06:24.075Z,6.83
2019-04-29T18:08:57.399Z,6.17
2019-04-29T18:11:25.083Z,5.53
2019-04-29T18:13:52.598Z,7.10
2019-04-29T18:16:28.000Z,6.40
2019-04-29T18:19:01.810Z,7.10
2019-04-29T18:21:47.556Z,7.23
2019-04-29T18:24:25.239Z,9.10
2019-04-29T18:26:56.844Z,6.90
2019-04-29T18:29:25.714Z,6.50
2019-04-29T18:31:52.732Z,9.33
2019-04-29T18:34:19.591Z,8.77
2019-04-29T18:36:46.384Z,5.80
2019-04-29T18:39:20.153Z,8.43
2019-04-29T18:41:47.040Z,9.30
2019-04-29T18:44:19.226Z,8.23
2019-04-29T18:46:45.975Z,7.23
2019-04-29T18:49:11.315Z,8.07
2019-04-29T18:51:38.202Z,7.87
2019-04-29T18:54:06.204Z,9.77
2019-04-29T18:56:36.362Z,9.17
2019-04-29T18:59:02.128Z,6.97
2019-04-29T19:01:30.615Z,8.03
2019-04-29T19:04:04.646Z,10.87
2019-04-29T19:06:32.136Z,8.90
2019-04-29T19:09:01.793Z,7.97
2019-04-29T19:11:32.394Z,6.97
2019-04-29T19:13:57.052Z,7.77
2019-04-29T19:16:27.390Z,8.03
2019-04-29T19:18:57.737Z,7.03
2019-04-29T19:21:23.638Z,8.50
2019-04-29T19:23:52.638Z,6.80
2019-04-29T19:26:22.338Z,7.80
2019-04-29T19:28:48.766Z,9.87
2019-04-29T19:31:17.094Z,9.30
2019-04-29T19:33:43.889Z,8.07
2019-04-29T19:36:17.499Z,9.57
2019-04-29T19:38:43.278Z,8.40
2019-04-29T19:41:15.920Z,9.73
2019-04-29T19:43:40.571Z,10.13
2019-04-29T19:46:07.416Z,9.70
2019-04-29T19:48:34.753Z,11.43
2019-04-29T19:51:21.320Z,10.13
2019-04-29T19:53:37.786Z,12.27
2019-04-29T19:56:26.809Z,10.47
2019-04-29T19:58:52.626Z,11.40
2019-04-29T20:01:29.804Z,11.78
2019-04-29T20:04:04.114Z,12.27
2019-04-29T20:06:32.601Z,11.37
2019-04-29T20:09:01.890Z,12.40
2019-04-29T20:11:33.770Z,12.60
2019-04-29T20:14:04.302Z,13.23
2019-04-29T20:16:47.957Z,12.73
2019-04-29T20:19:28.451Z,13.97
2019-04-29T20:22:00.429Z,13.20
2019-04-29T20:24:26.359Z,12.70
2019-04-29T20:26:53.642Z,12.60
2019-04-29T20:29:20.953Z,13.40
2019-04-29T20:31:51.576Z,12.13
2019-04-29T20:34:23.786Z,12.30
2019-04-29T20:36:45.924Z,12.33
2019-04-29T20:39:17.060Z,14.00
2019-04-29T20:41:44.597Z,13.30
2019-04-29T20:44:10.210Z,15.23
2019-04-29T20:46:45.095Z,13.40
2019-04-29T20:49:06.232Z,14.03
2019-04-29T20:51:48.771Z,15.13
2019-04-29T20:54:09.017Z,15.03
2019-04-29T20:56:36.862Z,13.40
2019-04-29T20:59:09.338Z,14.67
2019-04-29T21:01:42.909Z,14.47
2019-04-29T21:04:05.842Z,14.20
2019-04-29T21:06:39.287Z,15.27
2019-04-29T21:09:02.953Z,15.27
2019-04-29T21:11:35.957Z,15.00
2019-04-29T21:14:17.947Z,15.97
2019-04-29T21:16:46.583Z,15.97
2019-04-29T21:19:15.337Z,14.50
2019-04-29T21:21:43.692Z,15.57
2019-04-29T21:24:13.806Z,15.50
2019-04-29T21:26:44.450Z,16.37
2019-04-29T21:29:10.660Z,17.20
2019-04-29T21:31:37.335Z,16.73
2019-04-29T21:34:05.519Z,17.87
2019-04-29T21:36:49.643Z,15.53
2019-04-29T21:39:38.183Z,16.90
2019-04-29T21:42:39.769Z,16.07
2019-04-29T21:45:08.591Z,19.13
2019-04-29T21:47:42.750Z,16.97
2019-04-29T21:50:05.344Z,16.93
2019-04-29T21:52:32.191Z,16.43
2019-04-29T21:54:58.960Z,17.67
2019-04-29T21:57:25.801Z,18.80
2019-04-29T21:59:52.559Z,16.53
2019-04-29T22:02:19.610Z,17.57
2019-04-29T22:04:47.067Z,17.13
2019-04-29T22:07:15.656Z,16.70
2019-04-29T22:09:47.331Z,17.60
2019-04-29T22:12:14.129Z,17.27
2019-04-29T22:14:40.458Z,17.40
2019-04-29T22:17:07.345Z,21.40
2019-04-29T22:19:35.139Z,18.00
2019-04-29T22:22:02.842Z,18.53
2019-04-29T22:24:29.603Z,17.17
2019-04-29T22:27:03.985Z,17.80
2019-04-29T22:29:25.431Z,17.47
2019-04-29T22:31:52.292Z,19.13
2019-04-29T22:34:19.337Z,21.17
2019-04-29T22:36:48.256Z,19.53
2019-04-29T22:39:15.807Z,19.00
2019-04-29T22:42:08.399Z,20.03
2019-04-29T22:44:36.046Z,21.33
2019-04-29T22:47:05.629Z,21.40
2019-04-29T22:49:33.106Z,20.43
2019-04-29T22:52:00.165Z,23.13
2019-04-29T22:54:27.035Z,21.37
2019-04-29T22:56:56.496Z,23.67
2019-04-29T22:59:22.578Z,23.57
2019-04-29T23:01:50.671Z,22.23
2019-04-29T23:04:18.015Z,23.27
2019-04-29T23:06:47.974Z,26.03
2019-04-29T23:09:13.795Z,22.83
2019-04-29T23:11:40.813Z,23.87
2019-04-29T23:14:10.021Z,24.17
2019-04-29T23:16:37.063Z,27.73
2019-04-29T23:19:05.150Z,24.87
2019-04-29T23:21:51.943Z,26.47
2019-04-29T23:24:42.364Z,25.40
2019-04-29T23:27:11.597Z,26.97
2019-04-29T23:29:43.064Z,25.23
2019-04-29T23:32:08.663Z,23.70
2019-04-29T23:34:36.390Z,24.80
2019-04-29T23:37:03.514Z,26.17
2019-04-29T23:39:30.303Z,27.83
2019-04-29T23:41:57.135Z,24.37
2019-04-29T23:44:23.996Z,23.77
2019-04-29T23:46:50.764Z,24.10
2019-04-29T23:49:17.525Z,24.27
2019-04-29T23:51:46.315Z,23.83
2019-04-29T23:54:14.775Z,23.43
2019-04-29T23:57:01.600Z,26.27
2019-04-29T23:59:30.188Z,26.33
